Altenburg, Missouri
Current Conditions -  °F | °C
As of 7:03 AM on Wednesday 22 Oct 2014 (Local Time) from KMDH Reporting Station
Haze Haze  
Wind Chill: 35°   Ceiling: Unl
Heat Index: 35°   Visibility: 1mi
Dew Point: 34°   Wind: 0mph
Humidity: 96%   Direction: NA
Pressure: 30.28"   Gusts: NA
Location:  37.63°N, 89.59°W
Report Text: KMDH 221203Z 00000KT 1SM BR SCT002 02/01 A3028 RMK AO2 T00170011 $
Loading
Personal Weather Stations






























Interactive Weather Map
Tropical Storm Tracking
New forecast layout! Learn more

10-Day Weather Forecast

Advertisements
Track Severe Weather on mobile